Terminal Aerodrome Forecast
Issued by NWS

Home | Current Version | Previous Version | Text Only | Print | Product List | Glossary On
Versions: 1 2 3 4 5 6 7 8 9 10 11 12 13 14 15 16 17 18 19 20 21 22 23 24 25
000
FTUS46 KSEW 280500
TAFSEA
TAF
KSEA 280537Z 2806/2912 20012G24KT P6SM -RA SCT015 BKN022 OVC030
     FM281500 20012G24KT 6SM RA BR OVC015
     FM281800 01010KT 4SM -RA BR OVC012
     FM282000 01010KT P6SM VCSH SCT012 OVC025
     FM290200 20010KT P6SM BKN040=

USA.gov is the U.S. government's official web portal to all federal, state and local government web resources and services.